Time;durP1;ratioP1;P1;durP2;ratioP2;P2;SDS_P1;SDS_P2;PMS_P1;PMS_P2;Temp;Humidity;BMP_temperature;BMP_pressure;BME280_temperature;BME280_humidity;BME280_pressure;Samples;Min_cycle;Max_cycle;Signal;HPM_P1;HPM_P2
2022/03/20 00:00:28;;;;;;;;;;;6.40;1.00;;;;;;10494127;27;84061;-49
2022/03/20 00:05:29;;;;;;;;;;;6.40;1.00;;;;;;10490215;27;85248;-48
2022/03/20 00:10:30;;;;;;;;;;;6.40;1.00;;;;;;10494528;27;84134;-46
2022/03/20 00:15:30;;;;;;;;;;;6.30;99.90;;;;;;10493889;27;84095;-49
2022/03/20 00:20:35;;;;;;;;;;;6.30;1.00;;;;;;10485933;27;84147;-47
2022/03/20 00:25:37;;;;;;;;;;;6.20;1.00;;;;;;10451165;28;84020;-46
2022/03/20 00:30:38;;;;;;;;;;;6.10;1.00;;;;;;10452283;28;84888;-48
2022/03/20 00:35:39;;;;;;;;;;;6.10;1.00;;;;;;10450139;28;85120;-51
2022/03/20 00:40:39;;;;;;;;;;;6.00;99.90;;;;;;10493430;27;84099;-47
2022/03/20 00:45:40;;;;;;;;;;;5.90;99.90;;;;;;10491041;27;84865;-45
2022/03/20 00:50:40;;;;;;;;;;;5.80;1.00;;;;;;10493942;27;84770;-43
2022/03/20 00:55:41;;;;;;;;;;;5.80;1.00;;;;;;10477610;27;84850;-44
2022/03/20 01:00:42;;;;;;;;;;;5.70;1.00;;;;;;10451665;28;84944;-44
2022/03/20 01:05:42;;;;;;;;;;;5.70;1.00;;;;;;10415383;28;87218;-45
2022/03/20 01:10:43;;;;;;;;;;;5.70;1.00;;;;;;10474304;27;84178;-46
2022/03/20 01:15:44;;;;;;;;;;;5.60;1.00;;;;;;10495549;27;84112;-49
2022/03/20 01:20:44;;;;;;;;;;;5.60;1.00;;;;;;10481852;27;85885;-45
2022/03/20 01:25:45;;;;;;;;;;;5.50;1.00;;;;;;10486004;27;85391;-45
2022/03/20 01:30:47;;;;;;;;;;;5.40;1.00;;;;;;10439511;28;84155;-50
2022/03/20 01:35:48;;;;;;;;;;;5.40;1.00;;;;;;10456474;28;84845;-49
2022/03/20 01:40:49;;;;;;;;;;;5.30;1.00;;;;;;10461099;27;84719;-44
2022/03/20 01:45:49;;;;;;;;;;;5.20;1.00;;;;;;10498407;27;85558;-45
2022/03/20 01:50:50;;;;;;;;;;;5.20;1.00;;;;;;10498323;27;84843;-45
2022/03/20 01:55:51;;;;;;;;;;;5.20;1.00;;;;;;10479432;27;85358;-45
2022/03/20 02:00:51;;;;;;;;;;;5.10;99.90;;;;;;10479021;27;84197;-45
2022/03/20 02:05:52;;;;;;;;;;;5.10;99.90;;;;;;10479698;27;84151;-46
2022/03/20 02:10:54;;;;;;;;;;;5.10;1.00;;;;;;10498536;27;84827;-47
2022/03/20 02:15:54;;;;;;;;;;;5.00;1.00;;;;;;10471525;27;84864;-46
2022/03/20 02:20:57;;;;;;;;;;;5.10;99.90;;;;;;10456275;28;83961;-45
2022/03/20 02:25:57;;;;;;;;;;;5.00;99.90;;;;;;10453681;28;84056;-45
2022/03/20 02:30:58;;;;;;;;;;;5.00;1.00;;;;;;10492369;27;84037;-46
2022/03/20 02:35:58;;;;;;;;;;;5.00;1.00;;;;;;10496665;27;84347;-46
2022/03/20 02:41:14;;;;;;;;;;;5.00;1.00;;;;;;10490644;27;84841;-49
2022/03/20 02:46:14;;;;;;;;;;;4.90;1.00;;;;;;10455022;27;84352;-46
2022/03/20 02:51:17;;;;;;;;;;;4.90;99.90;;;;;;10454862;28;84938;-45
2022/03/20 02:56:17;;;;;;;;;;;4.80;99.90;;;;;;10452995;28;85060;-45
2022/03/20 03:01:18;;;;;;;;;;;4.70;99.90;;;;;;10487879;27;90324;-46
2022/03/20 03:06:18;;;;;;;;;;;4.70;1.00;;;;;;10495386;27;84805;-50
2022/03/20 03:11:20;;;;;;;;;;;4.70;1.00;;;;;;10478343;27;84612;-45
2022/03/20 03:16:20;;;;;;;;;;;4.70;1.00;;;;;;10493235;27;84701;-45
2022/03/20 03:21:21;;;;;;;;;;;4.60;1.00;;;;;;10495994;27;84391;-46
2022/03/20 03:26:21;;;;;;;;;;;4.60;1.00;;;;;;10494738;27;84231;-50
2022/03/20 03:31:22;;;;;;;;;;;4.60;99.90;;;;;;10475005;27;85080;-46
2022/03/20 03:36:22;;;;;;;;;;;4.60;99.90;;;;;;10494284;27;84828;-45
2022/03/20 03:41:24;;;;;;;;;;;4.50;38.70;;;;;;10488204;27;84702;-44
2022/03/20 03:46:24;;;;;;;;;;;4.50;1.00;;;;;;10484011;27;84221;-46
2022/03/20 03:51:25;;;;;;;;;;;4.50;1.00;;;;;;10452952;28;84854;-45
2022/03/20 03:56:25;;;;;;;;;;;4.50;1.00;;;;;;10467845;22;84843;-45
2022/03/20 04:01:26;;;;;;;;;;;4.40;1.00;;;;;;10409852;28;84976;-42
2022/03/20 04:06:27;;;;;;;;;;;4.40;1.00;;;;;;10405211;28;84965;-42
2022/03/20 04:11:28;;;;;;;;;;;4.40;1.00;;;;;;10386281;28;84419;-45
2022/03/20 04:16:28;;;;;;;;;;;4.30;1.00;;;;;;10409884;28;84954;-43
2022/03/20 04:21:29;;;;;;;;;;;4.20;1.00;;;;;;10396915;28;84561;-43
2022/03/20 04:26:30;;;;;;;;;;;4.20;1.00;;;;;;10404878;28;85232;-46
2022/03/20 04:31:30;;;;;;;;;;;4.20;1.00;;;;;;10384410;28;84160;-43
2022/03/20 04:36:31;;;;;;;;;;;4.20;1.00;;;;;;10408102;28;84959;-43
2022/03/20 04:41:32;;;;;;;;;;;4.20;1.00;;;;;;10411588;28;84186;-44
2022/03/20 04:46:32;;;;;;;;;;;4.30;1.00;;;;;;10406526;28;85662;-45
2022/03/20 05:02:11;;;;;;;;;;;4.20;99.90;;;;;;10371576;28;84710;-44
2022/03/20 05:07:11;;;;;;;;;;;4.10;99.90;;;;;;10367993;28;84205;-45
2022/03/20 05:17:31;;;;;;;;;;;4.00;99.90;;;;;;10368153;28;84717;-43
2022/03/20 05:22:35;;;;;;;;;;;4.00;99.90;;;;;;10367950;28;84188;-43
2022/03/20 05:27:36;;;;;;;;;;;4.00;99.90;;;;;;10366508;28;85052;-44
2022/03/20 05:32:40;;;;;;;;;;;3.90;99.90;;;;;;10368802;28;84721;-42
2022/03/20 05:37:40;;;;;;;;;;;3.90;99.90;;;;;;10366767;28;84813;-43
2022/03/20 05:42:42;;;;;;;;;;;3.90;99.90;;;;;;10367488;28;84878;-43
2022/03/20 05:47:43;;;;;;;;;;;3.90;1.00;;;;;;10377382;28;85509;-43
2022/03/20 05:52:43;;;;;;;;;;;4.00;1.00;;;;;;10408191;28;84647;-43
2022/03/20 05:58:02;;;;;;;;;;;4.10;1.00;;;;;;10406109;28;84308;-42
2022/03/20 06:03:04;;;;;;;;;;;4.10;1.00;;;;;;10410662;28;84287;-43
2022/03/20 06:08:05;;;;;;;;;;;4.30;1.00;;;;;;10414757;28;84995;-43
2022/03/20 06:13:06;;;;;;;;;;;4.40;1.00;;;;;;10414907;28;84019;-44
2022/03/20 06:18:06;;;;;;;;;;;4.40;1.00;;;;;;10413752;28;84921;-43
2022/03/20 06:23:07;;;;;;;;;;;4.40;99.90;;;;;;10411471;28;84359;-43
2022/03/20 06:28:08;;;;;;;;;;;4.50;99.90;;;;;;10412008;28;85041;-43
2022/03/20 06:33:09;;;;;;;;;;;4.50;99.90;;;;;;10415300;28;84853;-44
2022/03/20 06:38:10;;;;;;;;;;;4.60;99.90;;;;;;10389592;28;84989;-43
2022/03/20 06:43:10;;;;;;;;;;;4.70;13.80;;;;;;10371031;28;86048;-44
2022/03/20 06:48:11;;;;;;;;;;;4.80;1.00;;;;;;10373065;28;84170;-44
2022/03/20 06:53:11;;;;;;;;;;;4.80;1.00;;;;;;10372360;28;84942;-43
2022/03/20 06:58:13;;;;;;;;;;;4.80;1.00;;;;;;10374520;28;84464;-44
2022/03/20 07:03:15;;;;;;;;;;;5.00;1.00;;;;;;10413509;28;84236;-44
2022/03/20 07:08:15;;;;;;;;;;;5.00;1.00;;;;;;10413186;28;84053;-43
2022/03/20 07:18:36;;;;;;;;;;;5.20;1.00;;;;;;10383365;28;84164;-44
2022/03/20 07:23:37;;;;;;;;;;;5.30;1.00;;;;;;10393256;28;84338;-45
2022/03/20 07:33:57;;;;;;;;;;;5.50;1.00;;;;;;10399342;28;85117;-46
2022/03/20 07:38:59;;;;;;;;;;;5.90;1.00;;;;;;10396006;28;84758;-49
2022/03/20 07:43:59;;;;;;;;;;;6.60;99.90;;;;;;10393680;28;84864;-46
2022/03/20 07:49:00;;;;;;;;;;;7.20;99.90;;;;;;10396117;28;84259;-47
2022/03/20 07:54:02;;;;;;;;;;;7.60;27.70;;;;;;10394890;28;84160;-61
2022/03/20 07:59:05;;;;;;;;;;;8.20;1.00;;;;;;10370709;28;87213;-55
2022/03/20 08:04:07;;;;;;;;;;;8.70;1.00;;;;;;10372834;28;85990;-56
2022/03/20 08:09:08;;;;;;;;;;;9.10;1.00;;;;;;10398319;28;85915;-57
2022/03/20 08:14:09;;;;;;;;;;;9.20;1.00;;;;;;10408936;28;85217;-62
2022/03/20 08:19:11;;;;;;;;;;;9.60;1.00;;;;;;10402814;28;84844;-59
2022/03/20 08:24:14;;;;;;;;;;;10.10;1.00;;;;;;10392554;28;84540;-59
2022/03/20 08:29:15;;;;;;;;;;;10.10;99.90;;;;;;10387594;28;85078;-56
2022/03/20 08:34:16;;;;;;;;;;;10.60;99.90;;;;;;10377359;28;84112;-52
2022/03/20 08:39:16;;;;;;;;;;;10.40;99.90;;;;;;10380974;28;84231;-54
2022/03/20 08:44:17;;;;;;;;;;;11.00;99.90;;;;;;10403966;28;85237;-56
2022/03/20 08:49:18;;;;;;;;;;;11.50;99.90;;;;;;10384948;28;85907;-59
2022/03/20 08:54:18;;;;;;;;;;;11.80;99.90;;;;;;10384874;28;84444;-61
2022/03/20 08:59:19;;;;;;;;;;;11.90;99.90;;;;;;10390281;28;86932;-63
2022/03/20 09:04:19;;;;;;;;;;;11.60;99.90;;;;;;10379943;28;85630;-69
2022/03/20 09:09:20;;;;;;;;;;;12.10;99.90;;;;;;10362981;28;84179;-51
2022/03/20 09:14:21;;;;;;;;;;;13.00;99.90;;;;;;10397032;28;84545;-49
2022/03/20 09:19:21;;;;;;;;;;;13.10;99.90;;;;;;10404870;28;84846;-53
2022/03/20 09:24:22;;;;;;;;;;;12.30;99.90;;;;;;10402860;28;84190;-59
2022/03/20 09:29:22;;;;;;;;;;;12.70;99.90;;;;;;10368952;28;86384;-50
2022/03/20 09:34:23;;;;;;;;;;;13.10;99.90;;;;;;10413613;28;85956;-58
2022/03/20 09:39:25;;;;;;;;;;;13.50;99.90;;;;;;10398983;28;85513;-52
2022/03/20 09:44:27;;;;;;;;;;;14.00;99.90;;;;;;10414159;28;84869;-47
2022/03/20 09:49:27;;;;;;;;;;;13.50;80.50;;;;;;10413819;28;84165;-47
2022/03/20 09:54:28;;;;;;;;;;;13.50;99.90;;;;;;10416541;28;84030;-45
2022/03/20 09:59:28;;;;;;;;;;;13.70;99.90;;;;;;10409822;28;85291;-46
2022/03/20 10:04:29;;;;;;;;;;;13.90;99.90;;;;;;10373885;28;84249;-48
2022/03/20 10:09:30;;;;;;;;;;;13.30;99.90;;;;;;10372098;28;84894;-48
2022/03/20 10:14:30;;;;;;;;;;;13.00;99.90;;;;;;10372826;28;87091;-49
2022/03/20 10:19:31;;;;;;;;;;;12.70;99.90;;;;;;10390172;28;84438;-47
2022/03/20 10:24:33;;;;;;;;;;;12.90;99.90;;;;;;10414021;28;85101;-46
2022/03/20 10:29:34;;;;;;;;;;;12.90;99.90;;;;;;10414752;28;84731;-47
2022/03/20 10:34:52;;;;;;;;;;;13.70;99.90;;;;;;10387692;28;84807;-46
2022/03/20 10:40:09;;;;;;;;;;;13.80;99.90;;;;;;10371242;28;86924;-47
2022/03/20 10:45:10;;;;;;;;;;;13.50;99.90;;;;;;10374485;28;86135;-46
2022/03/20 10:50:10;;;;;;;;;;;13.60;99.90;;;;;;10370669;28;84135;-46
2022/03/20 10:55:12;;;;;;;;;;;14.00;99.90;;;;;;10372325;28;85672;-46
2022/03/20 11:00:14;;;;;;;;;;;14.50;99.90;;;;;;10389243;28;84290;-49
2022/03/20 11:05:15;;;;;;;;;;;14.20;99.90;;;;;;10401363;28;85386;-51
2022/03/20 11:10:17;;;;;;;;;;;14.10;99.90;;;;;;10372274;28;84066;-46
2022/03/20 11:15:17;;;;;;;;;;;13.40;98.60;;;;;;10372238;28;84600;-47
2022/03/20 11:20:19;;;;;;;;;;;12.50;82.00;;;;;;10387972;28;85319;-47
2022/03/20 11:25:24;;;;;;;;;;;12.30;99.90;;;;;;10384927;28;85306;-48
2022/03/20 11:30:29;;;;;;;;;;;12.30;99.90;;;;;;10394615;28;84968;-46
2022/03/20 11:35:30;;;;;;;;;;;12.80;99.90;;;;;;10389217;28;84882;-46
2022/03/20 11:40:36;;;;;;;;;;;13.10;99.90;;;;;;10392705;28;84715;-46
2022/03/20 11:45:37;;;;;;;;;;;13.50;99.90;;;;;;10389054;28;85799;-45
2022/03/20 11:50:44;;;;;;;;;;;13.60;99.90;;;;;;10368271;28;85736;-45
2022/03/20 11:55:51;;;;;;;;;;;13.90;99.90;;;;;;10380669;28;84075;-45
2022/03/20 12:01:04;;;;;;;;;;;13.20;99.90;;;;;;10406934;28;84681;-45
2022/03/20 12:06:24;;;;;;;;;;;13.50;99.90;;;;;;10406794;28;84159;-45
2022/03/20 12:11:33;;;;;;;;;;;14.40;99.90;;;;;;10410883;28;84892;-48
2022/03/20 12:16:43;;;;;;;;;;;15.90;99.90;;;;;;10408676;28;84107;-46
2022/03/20 12:21:52;;;;;;;;;;;16.60;99.90;;;;;;10410813;28;84891;-46
2022/03/20 12:26:54;;;;;;;;;;;16.50;99.90;;;;;;10410534;28;84939;-50
2022/03/20 12:31:56;;;;;;;;;;;16.70;99.90;;;;;;10409167;28;84177;-47
2022/03/20 12:37:16;;;;;;;;;;;16.80;99.90;;;;;;10409341;28;86067;-51
2022/03/20 12:42:17;;;;;;;;;;;17.20;99.90;;;;;;10410588;28;84858;-59
2022/03/20 12:47:19;;;;;;;;;;;16.80;48.50;;;;;;10381240;28;84404;-53
2022/03/20 12:52:20;;;;;;;;;;;17.10;66.30;;;;;;10373228;28;84697;-56
2022/03/20 12:57:39;;;;;;;;;;;17.10;40.30;;;;;;10380085;28;85029;-63
2022/03/20 13:02:56;;;;;;;;;;;17.20;24.60;;;;;;10400481;28;84164;-63
2022/03/20 13:07:57;;;;;;;;;;;17.20;21.90;;;;;;10392294;28;85091;-51
2022/03/20 13:12:58;;;;;;;;;;;17.60;49.80;;;;;;10410845;28;84170;-51
2022/03/20 13:17:59;;;;;;;;;;;17.50;52.40;;;;;;10395568;28;84971;-54
2022/03/20 13:23:05;;;;;;;;;;;16.70;11.30;;;;;;10388855;28;86927;-52
2022/03/20 13:28:05;;;;;;;;;;;16.80;25.50;;;;;;10391407;28;85312;-54
2022/03/20 13:33:06;;;;;;;;;;;16.90;27.30;;;;;;10396048;28;86505;-50
2022/03/20 13:38:07;;;;;;;;;;;17.10;99.90;;;;;;10394907;28;84018;-52
2022/03/20 13:43:11;;;;;;;;;;;17.00;56.10;;;;;;10388451;28;84143;-50
2022/03/20 13:48:13;;;;;;;;;;;17.40;87.80;;;;;;10395394;28;84978;-49
2022/03/20 13:53:14;;;;;;;;;;;16.70;50.30;;;;;;10402757;28;84740;-48
2022/03/20 13:58:16;;;;;;;;;;;15.90;55.40;;;;;;10381989;28;85435;-52
2022/03/20 14:03:25;;;;;;;;;;;15.60;70.70;;;;;;10387662;28;84509;-48
2022/03/20 14:08:26;;;;;;;;;;;15.80;95.60;;;;;;10405176;28;84850;-46
2022/03/20 14:13:29;;;;;;;;;;;15.80;99.90;;;;;;10404249;28;84219;-49
2022/03/20 14:18:30;;;;;;;;;;;15.70;99.90;;;;;;10386239;28;85106;-50
2022/03/20 14:23:32;;;;;;;;;;;15.60;99.90;;;;;;10397784;28;84331;-50
2022/03/20 14:28:36;;;;;;;;;;;15.20;99.90;;;;;;10399014;28;84121;-49
2022/03/20 14:39:28;;;;;;;;;;;14.90;99.90;;;;;;10399023;28;85156;-49
2022/03/20 14:44:30;;;;;;;;;;;15.00;99.90;;;;;;10409136;28;84717;-54
2022/03/20 14:49:31;;;;;;;;;;;14.80;99.90;;;;;;10410235;28;84138;-51
2022/03/20 14:54:32;;;;;;;;;;;14.60;99.90;;;;;;10404543;28;84942;-52
2022/03/20 14:59:33;;;;;;;;;;;14.60;99.90;;;;;;10397481;28;85410;-50
2022/03/20 15:04:34;;;;;;;;;;;14.60;99.90;;;;;;10393698;28;84663;-49
2022/03/20 15:14:55;;;;;;;;;;;14.60;99.90;;;;;;10389410;28;85634;-49
2022/03/20 15:19:56;;;;;;;;;;;14.70;99.90;;;;;;10382436;28;86366;-58
2022/03/20 15:24:58;;;;;;;;;;;14.70;1.00;;;;;;10396915;28;84778;-55
2022/03/20 15:29:59;;;;;;;;;;;14.80;1.00;;;;;;10387950;28;84992;-53
2022/03/20 15:35:01;;;;;;;;;;;14.70;1.00;;;;;;10400736;28;85162;-53
2022/03/20 15:40:03;;;;;;;;;;;14.70;1.00;;;;;;10393837;28;85598;-55
2022/03/20 15:45:05;;;;;;;;;;;14.80;1.00;;;;;;10397768;28;84920;-51
2022/03/20 15:50:06;;;;;;;;;;;14.80;1.00;;;;;;10387889;28;84883;-52
2022/03/20 15:55:07;;;;;;;;;;;14.70;1.00;;;;;;10395763;28;85301;-51
2022/03/20 16:00:08;;;;;;;;;;;14.60;1.00;;;;;;10392914;28;84182;-59
2022/03/20 16:05:09;;;;;;;;;;;14.60;1.00;;;;;;10382701;28;84510;-55
2022/03/20 16:10:11;;;;;;;;;;;14.70;1.00;;;;;;10384668;28;84459;-58
2022/03/20 16:15:12;;;;;;;;;;;14.50;1.00;;;;;;10386811;28;85084;-54
2022/03/20 16:20:13;;;;;;;;;;;14.00;1.00;;;;;;10390082;28;85319;-56
2022/03/20 16:30:33;;;;;;;;;;;13.00;1.00;;;;;;10395516;28;85195;-54
2022/03/20 16:35:33;;;;;;;;;;;12.40;1.00;;;;;;10388567;28;84341;-52
2022/03/20 16:40:34;;;;;;;;;;;11.80;1.00;;;;;;10391339;28;84223;-55
2022/03/20 16:45:35;;;;;;;;;;;11.50;99.90;;;;;;10387203;28;84502;-55
2022/03/20 16:50:36;;;;;;;;;;;11.40;99.90;;;;;;10374209;28;84240;-60
2022/03/20 16:55:37;;;;;;;;;;;11.40;99.90;;;;;;10395209;28;85333;-56
2022/03/20 17:00:38;;;;;;;;;;;11.20;99.90;;;;;;10395855;28;84955;-53
2022/03/20 17:05:39;;;;;;;;;;;11.30;99.90;;;;;;10363228;28;85068;-49
2022/03/20 17:10:40;;;;;;;;;;;11.20;99.90;;;;;;10367210;28;84864;-54
2022/03/20 17:15:41;;;;;;;;;;;11.20;99.90;;;;;;10391335;28;85088;-54
2022/03/20 17:20:41;;;;;;;;;;;11.20;99.90;;;;;;10375323;28;84917;-51
2022/03/20 17:25:42;;;;;;;;;;;11.20;99.90;;;;;;10364514;28;84188;-52
2022/03/20 17:30:43;;;;;;;;;;;11.20;99.90;;;;;;10364566;28;85360;-51
2022/03/20 17:35:44;;;;;;;;;;;11.20;1.00;;;;;;10365308;28;84910;-53
2022/03/20 17:40:44;;;;;;;;;;;11.10;1.00;;;;;;10365452;28;84204;-52
2022/03/20 17:45:45;;;;;;;;;;;11.10;1.00;;;;;;10385293;28;85336;-53
2022/03/20 17:50:46;;;;;;;;;;;11.10;1.00;;;;;;10381925;28;84203;-52
2022/03/20 17:55:46;;;;;;;;;;;11.20;1.00;;;;;;10385973;28;84353;-53
2022/03/20 18:00:47;;;;;;;;;;;11.30;1.00;;;;;;10403775;28;84768;-53
2022/03/20 18:11:08;;;;;;;;;;;11.20;1.00;;;;;;10410897;28;84770;-52
2022/03/20 18:16:09;;;;;;;;;;;11.10;1.00;;;;;;10409365;28;84277;-49
2022/03/20 18:21:09;;;;;;;;;;;11.10;1.00;;;;;;10404268;28;84833;-50
2022/03/20 18:26:10;;;;;;;;;;;11.10;1.00;;;;;;10423341;28;87149;-53
2022/03/20 18:31:11;;;;;;;;;;;11.10;1.00;;;;;;10409537;28;84726;-51
2022/03/20 18:36:13;;;;;;;;;;;11.10;1.00;;;;;;10408995;28;85003;-53
2022/03/20 18:41:14;;;;;;;;;;;11.10;1.00;;;;;;10384353;28;84989;-61
2022/03/20 18:46:15;;;;;;;;;;;11.10;1.00;;;;;;10392485;28;84182;-53
2022/03/20 18:51:15;;;;;;;;;;;11.10;1.00;;;;;;10414428;22;84859;-62
2022/03/20 18:56:16;;;;;;;;;;;11.00;1.00;;;;;;10449551;28;84926;-55
2022/03/20 19:01:16;;;;;;;;;;;11.10;1.00;;;;;;10448873;28;84376;-59
2022/03/20 19:06:18;;;;;;;;;;;11.00;1.00;;;;;;10404408;28;84232;-57
2022/03/20 19:11:18;;;;;;;;;;;11.00;1.00;;;;;;10411062;28;86611;-53
2022/03/20 19:16:19;;;;;;;;;;;11.10;1.00;;;;;;10392805;28;84203;-55
2022/03/20 19:21:20;;;;;;;;;;;11.00;1.00;;;;;;10409969;28;84156;-53
2022/03/20 19:26:21;;;;;;;;;;;11.00;99.90;;;;;;10412937;28;84107;-58
2022/03/20 19:31:23;;;;;;;;;;;11.00;51.90;;;;;;10414437;28;84678;-57
2022/03/20 19:41:42;;;;;;;;;;;11.10;71.50;;;;;;10378234;28;84283;-57
2022/03/20 19:46:45;;;;;;;;;;;11.00;89.60;;;;;;10404110;28;85022;-55
2022/03/20 19:51:45;;;;;;;;;;;11.00;99.90;;;;;;10404132;28;84072;-56
2022/03/20 19:56:46;;;;;;;;;;;11.10;51.80;;;;;;10413711;28;85085;-57
2022/03/20 20:01:46;;;;;;;;;;;11.00;99.90;;;;;;10413600;28;86884;-59
2022/03/20 20:06:47;;;;;;;;;;;11.00;99.90;;;;;;10413760;28;86397;-61
2022/03/20 20:11:49;;;;;;;;;;;10.90;1.00;;;;;;10413035;28;84950;-59
2022/03/20 20:16:51;;;;;;;;;;;11.10;99.90;;;;;;10417816;28;84227;-57
2022/03/20 20:21:51;;;;;;;;;;;11.00;1.00;;;;;;10382561;28;84699;-58
2022/03/20 20:26:52;;;;;;;;;;;11.10;1.00;;;;;;10408796;28;85703;-55
2022/03/20 20:31:58;;;;;;;;;;;11.10;1.00;;;;;;10393128;28;85226;-56
2022/03/20 20:36:59;;;;;;;30.25;16.33;;;10.90;1.00;;;;;;10383739;28;84897;-55
2022/03/20 20:42:00;;;;;;;34.90;17.52;;;10.90;1.00;;;;;;10406386;28;84082;-52
2022/03/20 20:47:01;;;;;;;35.55;16.75;;;10.80;1.00;;;;;;10378630;28;84285;-52
2022/03/20 20:52:03;;;;;;;37.28;18.25;;;10.60;1.00;;;;;;10378285;28;85842;-56
2022/03/20 20:57:04;;;;;;;38.05;18.63;;;10.50;1.00;;;;;;10409672;28;84238;-54
2022/03/20 21:02:06;;;;;;;38.78;19.35;;;10.50;1.00;;;;;;10403840;28;84510;-55
2022/03/20 21:12:29;;;;;;;32.83;18.08;;;10.40;1.00;;;;;;10406511;28;87056;-54
2022/03/20 21:17:30;;;;;;;32.72;17.17;;;10.30;1.00;;;;;;10407958;28;84468;-58
2022/03/20 21:22:31;;;;;;;36.30;17.58;;;10.40;1.00;;;;;;10384609;28;84821;-59
2022/03/20 21:27:31;;;;;;;34.55;18.02;;;10.40;1.00;;;;;;10374972;28;85904;-52
2022/03/20 21:32:33;;;;;;;32.83;15.85;;;10.30;1.00;;;;;;10390742;28;84312;-57
2022/03/20 21:37:33;;;;;;;31.73;17.58;;;10.40;1.00;;;;;;10412474;28;84883;-52
2022/03/20 21:42:34;;;;;;;31.52;16.90;;;10.50;1.00;;;;;;10415244;28;86271;-57
2022/03/20 21:47:36;;;;;;;34.90;17.30;;;10.50;1.00;;;;;;10414223;28;84785;-56
2022/03/20 21:52:38;;;;;;;37.75;18.83;;;10.50;1.00;;;;;;10415979;28;84054;-54
2022/03/20 21:57:38;;;;;;;36.47;17.30;;;10.40;1.00;;;;;;10415625;28;84285;-55
2022/03/20 22:02:40;;;;;;;33.92;18.55;;;10.40;1.00;;;;;;10415120;28;84274;-56
2022/03/20 22:07:41;;;;;;;34.30;17.48;;;10.30;1.00;;;;;;10413525;28;84348;-56
2022/03/20 22:12:42;;;;;;;34.13;17.58;;;10.40;1.00;;;;;;10411488;28;87362;-57
2022/03/20 22:17:43;;;;;;;31.55;17.40;;;10.30;1.00;;;;;;10413168;28;84957;-54
2022/03/20 22:22:45;;;;;;;37.00;17.98;;;10.30;1.00;;;;;;10412478;28;84136;-56
2022/03/20 22:27:46;;;;;;;35.08;17.10;;;10.40;1.00;;;;;;10409172;28;84183;-59
2022/03/20 22:32:46;;;;;;;33.03;16.88;;;10.40;1.00;;;;;;10408557;28;84872;-58
2022/03/20 22:37:48;;;;;;;;;;;10.40;1.00;;;;;;10411005;28;84888;-58
2022/03/20 22:42:50;;;;;;;;;;;10.40;1.00;;;;;;10410250;28;84667;-60
2022/03/20 22:47:51;;;;;;;;;;;10.40;1.00;;;;;;10402573;28;85196;-60
2022/03/20 22:52:55;;;;;;;;;;;10.30;1.00;;;;;;10410402;28;84996;-55
2022/03/20 22:57:57;;;;;;;;;;;10.30;1.00;;;;;;10411747;28;84960;-56
2022/03/20 23:02:59;;;;;;;;;;;10.40;1.00;;;;;;10411923;28;84869;-54
2022/03/20 23:07:59;;;;;;;;;;;10.50;1.00;;;;;;10409083;28;85250;-55
2022/03/20 23:13:00;;;;;;;;;;;10.50;1.00;;;;;;10408808;28;84939;-58
2022/03/20 23:18:00;;;;;;;;;;;10.40;1.00;;;;;;10407395;28;84922;-61
2022/03/20 23:23:02;;;;;;;;;;;10.50;99.90;;;;;;10410905;28;84141;-56
2022/03/20 23:28:03;;;;;;;;;;;10.50;1.00;;;;;;10409132;28;85035;-57
2022/03/20 23:33:07;;;;;;;;;;;10.50;1.00;;;;;;10411892;28;84684;-57
2022/03/20 23:38:12;;;;;;;;;;;10.50;1.00;;;;;;10410294;28;84971;-55
2022/03/20 23:43:16;;;;;;;;;;;10.50;99.90;;;;;;10409151;28;84318;-55
2022/03/20 23:48:17;;;;;;;;;;;10.30;99.90;;;;;;10392069;28;87263;-55
2022/03/20 23:53:17;;;;;;;;;;;10.30;1.00;;;;;;10409192;28;84913;-57
2022/03/20 23:58:18;;;;;;;;;;;10.20;1.00;;;;;;10410555;28;84158;-56
